createdAt,value
2022-12-03T00:00:12.465Z,32.47
2022-12-03T00:02:41.819Z,38.70
2022-12-03T00:05:10.166Z,39.05
2022-12-03T00:07:37.789Z,35.85
2022-12-03T00:10:06.663Z,31.95
2022-12-03T00:12:34.316Z,30.20
2022-12-03T00:15:01.955Z,34.55
2022-12-03T00:17:30.730Z,36.72
2022-12-03T00:19:58.350Z,28.83
2022-12-03T00:22:25.947Z,32.60
2022-12-03T00:24:53.912Z,29.45
2022-12-03T00:27:22.129Z,30.17
2022-12-03T00:29:49.956Z,30.92
2022-12-03T00:32:17.603Z,28.02
2022-12-03T00:34:45.648Z,33.58
2022-12-03T00:37:13.401Z,28.80
2022-12-03T00:39:41.114Z,29.55
2022-12-03T00:42:08.798Z,25.75
2022-12-03T00:44:38.627Z,27.58
2022-12-03T00:47:06.428Z,33.40
2022-12-03T00:49:33.999Z,25.67
2022-12-03T00:52:01.675Z,27.92
2022-12-03T00:54:32.133Z,25.92
2022-12-03T00:56:59.942Z,23.43
2022-12-03T00:59:27.612Z,26.88
2022-12-03T01:01:55.379Z,23.13
2022-12-03T01:04:23.039Z,27.52
2022-12-03T01:06:50.645Z,30.25
2022-12-03T01:09:18.217Z,32.47
2022-12-03T01:11:46.012Z,25.13
2022-12-03T01:14:18.670Z,23.70
2022-12-03T01:16:46.863Z,21.90
2022-12-03T01:19:16.125Z,21.92
2022-12-03T01:21:49.754Z,21.85
2022-12-03T01:24:19.021Z,18.05
2022-12-03T01:26:46.775Z,19.83
2022-12-03T01:29:15.897Z,18.52
2022-12-03T01:32:01.958Z,18.27
2022-12-03T01:34:29.620Z,18.77
2022-12-03T01:36:57.500Z,18.60
2022-12-03T01:39:25.100Z,22.00
2022-12-03T01:41:53.969Z,18.23
2022-12-03T01:44:24.628Z,16.08
2022-12-03T01:46:54.575Z,23.27
2022-12-03T01:49:27.524Z,19.17
2022-12-03T01:51:56.257Z,20.60
2022-12-03T01:54:35.953Z,18.45
2022-12-03T01:57:03.897Z,17.42
2022-12-03T01:59:38.794Z,24.08
2022-12-03T02:02:23.350Z,18.30
2022-12-03T02:04:53.425Z,21.63
2022-12-03T02:07:21.120Z,19.83
2022-12-03T02:09:50.377Z,18.77
2022-12-03T02:12:24.912Z,16.83
2022-12-03T02:14:53.787Z,23.35
2022-12-03T02:17:21.565Z,19.25
2022-12-03T02:19:49.516Z,21.13
2022-12-03T02:22:40.095Z,20.52
2022-12-03T02:25:19.355Z,17.02
2022-12-03T02:27:48.201Z,18.02
2022-12-03T02:30:19.298Z,22.95
2022-12-03T02:32:48.506Z,21.00
2022-12-03T02:35:24.786Z,17.90
2022-12-03T02:38:21.085Z,17.08
2022-12-03T02:40:52.062Z,25.20
2022-12-03T02:43:21.661Z,18.92
2022-12-03T02:45:53.478Z,21.23
2022-12-03T02:48:28.541Z,21.95
2022-12-03T02:50:59.408Z,23.83
2022-12-03T02:53:42.463Z,22.98
2022-12-03T02:56:14.405Z,24.63
2022-12-03T02:58:43.856Z,21.55
2022-12-03T03:01:12.153Z,20.88
2022-12-03T03:03:40.077Z,26.00
2022-12-03T03:06:09.236Z,23.23
2022-12-03T03:08:39.358Z,22.48
2022-12-03T03:11:07.481Z,23.60
2022-12-03T03:13:36.086Z,18.38
2022-12-03T03:16:06.030Z,22.92
2022-12-03T03:18:35.126Z,21.60
2022-12-03T03:21:03.955Z,19.20
2022-12-03T03:23:31.736Z,18.38
2022-12-03T03:26:08.679Z,21.27
2022-12-03T03:28:40.329Z,20.13
2022-12-03T03:33:39.580Z,21.50
2022-12-03T03:36:08.059Z,21.65
2022-12-03T03:38:36.547Z,19.65
2022-12-03T03:41:05.938Z,19.10
2022-12-03T03:43:35.528Z,21.02
2022-12-03T03:46:05.416Z,18.98
2022-12-03T03:48:34.571Z,20.55
2022-12-03T03:51:08.848Z,17.38
2022-12-03T03:53:42.704Z,17.70
2022-12-03T03:56:11.580Z,20.38
2022-12-03T03:58:39.234Z,21.80
2022-12-03T04:01:07.282Z,25.58
2022-12-03T04:03:35.384Z,21.65
2022-12-03T04:06:03.113Z,19.38
2022-12-03T04:08:30.941Z,17.98
2022-12-03T04:11:18.122Z,20.20
2022-12-03T04:13:45.778Z,18.92
2022-12-03T04:16:13.318Z,20.17
2022-12-03T04:18:43.734Z,24.65
2022-12-03T04:21:30.988Z,25.00
2022-12-03T04:23:58.828Z,19.75
2022-12-03T04:26:45.077Z,21.77
2022-12-03T04:29:13.175Z,21.38
2022-12-03T04:31:59.837Z,21.98
2022-12-03T04:34:46.012Z,22.77
2022-12-03T04:37:13.942Z,23.05
2022-12-03T04:39:41.532Z,22.30
2022-12-03T04:42:09.233Z,21.15
2022-12-03T04:44:37.767Z,22.20
2022-12-03T04:47:13.031Z,24.30
2022-12-03T04:49:45.716Z,21.30
2022-12-03T04:52:14.990Z,17.23
2022-12-03T04:54:43.534Z,23.48
2022-12-03T04:57:11.507Z,16.65
2022-12-03T04:59:39.110Z,24.02
2022-12-03T05:02:07.093Z,20.05
2022-12-03T05:04:34.928Z,17.40
2022-12-03T05:07:02.803Z,19.27
2022-12-03T05:09:30.419Z,18.73
2022-12-03T05:11:58.194Z,22.38
2022-12-03T05:14:25.912Z,20.38
2022-12-03T05:16:53.618Z,19.05
2022-12-03T05:19:21.185Z,18.65
2022-12-03T05:21:48.861Z,17.85
2022-12-03T05:24:16.380Z,15.15
2022-12-03T05:26:44.146Z,20.33
2022-12-03T05:29:11.627Z,16.17
2022-12-03T05:31:39.197Z,16.40
2022-12-03T05:34:06.690Z,17.42
2022-12-03T05:36:34.285Z,17.23
2022-12-03T05:39:01.884Z,13.07
2022-12-03T05:41:47.820Z,17.45
2022-12-03T05:44:20.279Z,16.40
2022-12-03T05:46:48.362Z,16.23
2022-12-03T05:49:16.026Z,15.40
2022-12-03T05:51:43.735Z,19.88
2022-12-03T05:54:11.292Z,17.75
2022-12-03T05:56:38.845Z,20.67
2022-12-03T05:59:06.432Z,12.73
2022-12-03T06:01:34.536Z,12.15
2022-12-03T06:04:02.079Z,16.27
2022-12-03T06:06:29.709Z,15.05
2022-12-03T06:08:57.293Z,17.23
2022-12-03T06:11:24.831Z,14.95
2022-12-03T06:13:52.704Z,12.45
2022-12-03T06:16:20.390Z,14.68
2022-12-03T06:18:47.942Z,12.05
2022-12-03T06:21:15.488Z,15.38
2022-12-03T06:23:44.868Z,14.73
2022-12-03T06:26:12.804Z,16.38
2022-12-03T06:28:40.859Z,13.80
2022-12-03T06:31:08.464Z,17.00
2022-12-03T06:33:36.052Z,12.60
2022-12-03T06:36:05.391Z,13.63
2022-12-03T06:38:32.884Z,17.48
2022-12-03T06:41:00.472Z,17.20
2022-12-03T06:43:27.976Z,13.75
2022-12-03T06:45:55.505Z,13.55
2022-12-03T06:48:23.032Z,16.05
2022-12-03T06:50:50.751Z,11.45
2022-12-03T06:53:18.427Z,17.80
2022-12-03T06:55:45.937Z,15.57
2022-12-03T06:58:13.504Z,12.13
2022-12-03T07:00:41.115Z,16.45
2022-12-03T07:03:08.651Z,17.75
2022-12-03T07:05:36.412Z,14.25
2022-12-03T07:08:04.517Z,15.30
2022-12-03T07:10:32.371Z,13.63
2022-12-03T07:12:59.880Z,14.13
2022-12-03T07:15:27.471Z,14.48
2022-12-03T07:17:56.303Z,16.33
2022-12-03T07:20:24.233Z,18.23
2022-12-03T07:22:53.789Z,12.52
2022-12-03T07:25:23.499Z,15.57
2022-12-03T07:27:51.492Z,12.10
2022-12-03T07:30:19.183Z,14.88
2022-12-03T07:32:46.686Z,14.15
2022-12-03T07:35:14.330Z,12.60
2022-12-03T07:37:42.031Z,20.13
2022-12-03T07:40:12.653Z,20.00
2022-12-03T07:42:40.560Z,17.88
2022-12-03T07:45:08.873Z,20.65
2022-12-03T07:47:36.403Z,18.75
2022-12-03T07:50:03.977Z,17.73
2022-12-03T07:52:31.557Z,21.77
2022-12-03T07:54:59.115Z,17.02
2022-12-03T07:57:26.696Z,19.50
2022-12-03T07:59:56.268Z,19.38
2022-12-03T08:02:23.917Z,17.88
2022-12-03T08:04:51.745Z,16.10
2022-12-03T08:07:19.517Z,22.55
2022-12-03T08:09:47.177Z,23.42
2022-12-03T08:12:41.724Z,17.45
2022-12-03T08:15:14.202Z,15.35
2022-12-03T08:17:42.925Z,16.83
2022-12-03T08:20:22.551Z,16.98
2022-12-03T08:22:52.373Z,15.82
2022-12-03T08:25:25.565Z,15.63
2022-12-03T08:27:57.962Z,13.32
2022-12-03T08:30:25.692Z,17.73
2022-12-03T08:32:53.908Z,26.60
2022-12-03T08:35:24.548Z,16.17
2022-12-03T08:38:01.302Z,23.10
2022-12-03T08:40:35.545Z,20.38
2022-12-03T08:43:16.442Z,20.58
2022-12-03T08:45:44.311Z,18.80
2022-12-03T08:48:32.697Z,16.48
2022-12-03T08:51:13.362Z,16.05
2022-12-03T08:53:50.206Z,20.75
2022-12-03T08:56:29.181Z,18.88
2022-12-03T08:59:21.420Z,22.05
2022-12-03T09:01:50.127Z,20.17
2022-12-03T09:04:21.451Z,25.67
2022-12-03T09:06:49.474Z,16.30
2022-12-03T09:09:17.102Z,16.17
2022-12-03T09:11:44.885Z,19.45
2022-12-03T09:14:18.299Z,18.58
2022-12-03T09:16:46.736Z,15.57
2022-12-03T09:19:14.415Z,18.48
2022-12-03T09:21:42.331Z,18.48
2022-12-03T09:24:09.857Z,15.57
2022-12-03T09:26:37.584Z,16.98
2022-12-03T09:29:10.413Z,15.63
2022-12-03T09:31:40.228Z,12.00
2022-12-03T09:34:08.334Z,16.83
2022-12-03T09:36:35.961Z,15.82
2022-12-03T09:39:04.195Z,20.63
2022-12-03T09:41:31.824Z,15.05
2022-12-03T09:44:04.396Z,14.73
2022-12-03T09:46:35.225Z,15.05
2022-12-03T09:49:04.985Z,15.75
2022-12-03T09:51:35.373Z,14.20
2022-12-03T09:54:04.896Z,17.65
2022-12-03T09:56:34.073Z,23.13
2022-12-03T09:59:02.353Z,20.33
2022-12-03T10:01:31.178Z,17.25
2022-12-03T10:03:58.844Z,22.13
2022-12-03T10:06:26.491Z,16.63
2022-12-03T10:08:55.516Z,15.30
2022-12-03T10:11:25.200Z,16.50
2022-12-03T10:13:57.698Z,10.43
2022-12-03T10:16:26.724Z,11.45
2022-12-03T10:18:58.501Z,10.40
2022-12-03T10:21:31.546Z,10.27
2022-12-03T10:24:29.312Z,11.80
2022-12-03T10:27:02.394Z,11.77
2022-12-03T10:29:35.587Z,8.77
2022-12-03T10:32:07.536Z,10.15
2022-12-03T10:34:37.900Z,10.68
2022-12-03T10:37:20.053Z,11.82
2022-12-03T10:40:09.342Z,9.55
2022-12-03T10:42:41.593Z,7.57
2022-12-03T10:45:25.177Z,8.30
2022-12-03T10:48:11.638Z,8.80
2022-12-03T10:51:07.110Z,7.63
2022-12-03T10:53:37.160Z,7.95
2022-12-03T10:56:07.485Z,8.15
2022-12-03T10:58:39.689Z,9.17
2022-12-03T11:01:18.960Z,6.70
2022-12-03T11:03:47.368Z,5.15
2022-12-03T11:06:20.752Z,7.07
2022-12-03T11:08:56.760Z,11.23
2022-12-03T11:11:30.111Z,7.50
2022-12-03T11:13:59.455Z,8.40
2022-12-03T11:16:42.258Z,6.93
2022-12-03T11:19:12.900Z,8.65
2022-12-03T11:22:06.772Z,9.20
2022-12-03T11:24:36.700Z,5.60
2022-12-03T11:27:04.180Z,6.22
2022-12-03T11:29:50.021Z,5.53
2022-12-03T11:32:59.527Z,6.38
2022-12-03T11:35:35.836Z,10.30
2022-12-03T11:38:37.462Z,7.72
2022-12-03T11:43:53.336Z,7.45
2022-12-03T11:46:28.807Z,8.00
2022-12-03T11:48:59.116Z,7.75
2022-12-03T11:51:29.339Z,8.00
2022-12-03T11:53:59.688Z,5.28
2022-12-03T11:56:29.353Z,6.10
2022-12-03T11:59:04.609Z,7.80
2022-12-03T12:01:38.620Z,6.78
2022-12-03T12:04:25.851Z,9.80
2022-12-03T12:06:53.680Z,9.05
2022-12-03T12:09:54.015Z,7.22
2022-12-03T12:12:40.839Z,5.90
2022-12-03T12:15:33.615Z,7.50
2022-12-03T12:18:38.744Z,8.13
2022-12-03T12:21:43.850Z,6.68
2022-12-03T12:24:30.253Z,7.43
2022-12-03T12:27:09.622Z,6.55
2022-12-03T12:29:39.056Z,7.10
2022-12-03T12:32:09.470Z,6.75
2022-12-03T12:34:38.625Z,8.60
2022-12-03T12:37:15.199Z,6.80
2022-12-03T12:39:43.329Z,9.52
2022-12-03T12:42:25.860Z,6.53
2022-12-03T12:44:54.827Z,8.77
2022-12-03T12:47:22.329Z,7.95
2022-12-03T12:49:52.027Z,12.43
2022-12-03T12:52:19.639Z,8.07
2022-12-03T12:54:47.270Z,9.20
2022-12-03T12:57:20.580Z,8.48
2022-12-03T12:59:48.685Z,6.85
2022-12-03T13:02:31.733Z,8.95
2022-12-03T13:05:02.255Z,9.30
2022-12-03T13:07:30.387Z,6.80
2022-12-03T13:10:00.146Z,7.20
2022-12-03T13:12:27.676Z,7.45
2022-12-03T13:14:59.230Z,6.50
2022-12-03T13:17:26.890Z,7.40
2022-12-03T13:20:07.660Z,9.38
2022-12-03T13:22:35.840Z,9.27
2022-12-03T13:28:25.363Z,9.07
2022-12-03T13:30:52.853Z,8.60
2022-12-03T13:33:27.991Z,7.90
2022-12-03T13:35:55.977Z,8.07
2022-12-03T13:38:25.111Z,8.10
2022-12-03T13:40:59.485Z,8.35
2022-12-03T13:43:31.911Z,9.35
2022-12-03T13:46:00.591Z,9.35
2022-12-03T13:48:35.206Z,7.72
2022-12-03T13:51:19.900Z,8.43
2022-12-03T13:53:47.477Z,8.63
2022-12-03T13:56:25.988Z,7.80
2022-12-03T13:58:54.093Z,6.15
2022-12-03T14:01:21.746Z,9.00
2022-12-03T14:03:49.947Z,8.55
2022-12-03T14:06:18.863Z,8.05
2022-12-03T14:08:47.093Z,14.32
2022-12-03T14:11:34.472Z,10.90
2022-12-03T14:14:02.070Z,9.63
2022-12-03T14:16:29.653Z,8.07
2022-12-03T14:18:58.249Z,10.30
2022-12-03T14:21:25.772Z,16.35
2022-12-03T14:23:53.364Z,8.55
2022-12-03T14:26:20.912Z,8.13
2022-12-03T14:28:48.522Z,11.20
2022-12-03T14:31:16.076Z,7.00
2022-12-03T14:33:43.665Z,8.00
2022-12-03T14:36:11.121Z,11.55
2022-12-03T14:38:38.638Z,11.75
2022-12-03T14:41:26.236Z,11.48
2022-12-03T14:43:53.815Z,10.70
2022-12-03T14:46:21.427Z,11.73
2022-12-03T14:48:49.080Z,12.15
2022-12-03T14:51:16.665Z,10.68
2022-12-03T14:53:44.224Z,8.55
2022-12-03T14:56:11.879Z,8.68
2022-12-03T14:58:39.602Z,8.52
2022-12-03T15:01:07.189Z,9.55
2022-12-03T15:03:34.838Z,8.00
2022-12-03T15:06:02.325Z,9.30
2022-12-03T15:08:29.865Z,8.68
2022-12-03T15:10:57.359Z,9.38
2022-12-03T15:13:24.933Z,12.95
2022-12-03T15:15:53.488Z,8.00
2022-12-03T15:18:21.097Z,8.90
2022-12-03T15:20:49.621Z,11.05
2022-12-03T15:23:17.269Z,8.30
2022-12-03T15:25:45.111Z,13.27
2022-12-03T15:28:12.827Z,9.68
2022-12-03T15:30:40.516Z,12.60
2022-12-03T15:33:08.351Z,11.98
2022-12-03T15:35:35.952Z,9.38
2022-12-03T15:38:03.698Z,10.15
2022-12-03T15:40:31.330Z,10.10
2022-12-03T15:42:58.948Z,15.63
2022-12-03T15:45:26.500Z,8.15
2022-12-03T15:47:54.034Z,10.73
2022-12-03T15:50:21.529Z,10.57
2022-12-03T15:52:49.100Z,10.00
2022-12-03T15:55:17.029Z,10.30
2022-12-03T15:57:44.837Z,11.75
2022-12-03T16:00:14.232Z,11.85
2022-12-03T16:02:46.216Z,15.30
2022-12-03T16:05:16.740Z,14.70
2022-12-03T16:07:44.307Z,12.65
2022-12-03T16:10:12.297Z,14.43
2022-12-03T16:12:39.874Z,12.15
2022-12-03T16:15:07.893Z,10.60
2022-12-03T16:17:35.385Z,11.40
2022-12-03T16:20:03.219Z,11.13
2022-12-03T16:22:30.805Z,10.75
2022-12-03T16:24:58.392Z,11.40
2022-12-03T16:27:26.917Z,11.65
2022-12-03T16:29:56.212Z,15.13
2022-12-03T16:32:24.464Z,10.82
2022-12-03T16:34:52.205Z,13.20
2022-12-03T16:37:19.840Z,16.50
2022-12-03T16:39:51.445Z,14.02
2022-12-03T16:42:19.186Z,16.95
2022-12-03T16:45:22.851Z,15.15
2022-12-03T16:47:50.660Z,16.73
2022-12-03T16:50:27.315Z,14.00
2022-12-03T16:52:57.065Z,19.30
2022-12-03T16:55:25.082Z,17.67
2022-12-03T16:57:52.597Z,16.35
2022-12-03T17:00:21.983Z,14.88
2022-12-03T17:02:49.567Z,12.88
2022-12-03T17:05:17.166Z,13.00
2022-12-03T17:07:46.204Z,10.38
2022-12-03T17:10:14.127Z,13.75
2022-12-03T17:13:08.378Z,13.70
2022-12-03T17:15:29.406Z,14.07
2022-12-03T17:17:57.253Z,11.52
2022-12-03T17:20:25.141Z,12.35
2022-12-03T17:22:53.000Z,11.77
2022-12-03T17:25:20.678Z,15.77
2022-12-03T17:27:48.971Z,14.38
2022-12-03T17:30:17.425Z,9.98
2022-12-03T17:32:45.027Z,14.05
2022-12-03T17:35:12.933Z,15.00
2022-12-03T17:37:40.715Z,14.45
2022-12-03T17:40:11.308Z,15.57
2022-12-03T17:42:38.865Z,10.07
2022-12-03T17:45:07.280Z,12.63
2022-12-03T17:47:34.842Z,12.55
2022-12-03T17:50:02.828Z,19.30
2022-12-03T17:52:30.333Z,22.13
2022-12-03T17:55:21.586Z,12.38
2022-12-03T17:57:46.176Z,18.73
2022-12-03T18:00:14.023Z,23.17
2022-12-03T18:02:42.625Z,15.02
2022-12-03T18:05:10.748Z,10.63
2022-12-03T18:07:38.558Z,12.65
2022-12-03T18:10:07.145Z,12.75
2022-12-03T18:12:34.710Z,12.57
2022-12-03T18:15:02.268Z,13.27
2022-12-03T18:17:29.795Z,12.02
2022-12-03T18:19:57.820Z,10.43
2022-12-03T18:22:27.664Z,11.60
2022-12-03T18:24:55.909Z,12.40
2022-12-03T18:27:24.459Z,10.63
2022-12-03T18:29:52.428Z,11.85
2022-12-03T18:32:28.722Z,9.63
2022-12-03T18:34:58.142Z,12.30
2022-12-03T18:37:31.236Z,11.25
2022-12-03T18:39:59.697Z,10.18
2022-12-03T18:42:27.543Z,11.05
2022-12-03T18:44:56.670Z,14.73
2022-12-03T18:47:27.614Z,10.20
2022-12-03T18:49:55.879Z,13.48
2022-12-03T18:52:25.175Z,13.15
2022-12-03T18:54:53.249Z,15.52
2022-12-03T18:57:20.811Z,16.15
2022-12-03T18:59:48.483Z,14.57
2022-12-03T19:02:53.875Z,12.93
2022-12-03T19:05:06.436Z,12.15
2022-12-03T19:07:34.057Z,13.48
2022-12-03T19:10:01.693Z,11.48
2022-12-03T19:12:29.895Z,13.50
2022-12-03T19:14:57.550Z,11.55
2022-12-03T19:17:27.291Z,16.20
2022-12-03T19:19:55.442Z,14.88
2022-12-03T19:22:24.052Z,13.00
2022-12-03T19:24:51.855Z,12.95
2022-12-03T19:27:19.619Z,10.40
2022-12-03T19:29:50.121Z,11.13
2022-12-03T19:32:17.723Z,12.73
2022-12-03T19:34:45.280Z,15.70
2022-12-03T19:37:13.116Z,12.45
2022-12-03T19:39:41.105Z,13.98
2022-12-03T19:42:08.817Z,12.57
2022-12-03T19:44:36.540Z,12.13
2022-12-03T19:47:04.261Z,11.48
2022-12-03T19:49:31.900Z,9.32
2022-12-03T19:51:59.609Z,10.77
2022-12-03T19:54:27.209Z,10.07
2022-12-03T19:56:54.904Z,12.18
2022-12-03T19:59:22.435Z,9.80
2022-12-03T20:01:50.143Z,11.75
2022-12-03T20:04:18.275Z,10.52
2022-12-03T20:06:47.581Z,8.35
2022-12-03T20:09:19.272Z,7.43
2022-12-03T20:11:51.084Z,9.32
2022-12-03T20:14:18.956Z,7.93
2022-12-03T20:16:48.642Z,8.90
2022-12-03T20:19:17.728Z,8.23
2022-12-03T20:21:45.716Z,10.40
2022-12-03T20:24:16.654Z,10.90
2022-12-03T20:26:44.743Z,10.30
2022-12-03T20:29:12.604Z,8.27
2022-12-03T20:31:40.523Z,8.63
2022-12-03T20:34:08.084Z,7.45
2022-12-03T20:36:35.794Z,9.52
2022-12-03T20:39:07.103Z,9.30
2022-12-03T20:41:36.958Z,9.57
2022-12-03T20:44:07.540Z,7.45
2022-12-03T20:46:36.381Z,8.47
2022-12-03T20:49:04.197Z,8.25
2022-12-03T20:51:32.248Z,10.10
2022-12-03T20:54:01.154Z,8.30
2022-12-03T20:56:31.914Z,7.13
2022-12-03T20:59:00.952Z,7.93
2022-12-03T21:01:28.605Z,7.43
2022-12-03T21:03:57.429Z,8.68
2022-12-03T21:06:27.941Z,8.13
2022-12-03T21:08:57.966Z,10.13
2022-12-03T21:11:29.692Z,10.90
2022-12-03T21:13:57.868Z,8.65
2022-12-03T21:17:05.893Z,10.13
2022-12-03T21:19:20.325Z,10.73
2022-12-03T21:21:48.884Z,9.10
2022-12-03T21:24:16.922Z,7.80
2022-12-03T21:26:44.680Z,8.70
2022-12-03T21:29:12.343Z,11.15
2022-12-03T21:31:40.398Z,9.93
2022-12-03T21:34:08.792Z,12.07
2022-12-03T21:36:36.806Z,6.70
2022-12-03T21:39:05.955Z,8.70
2022-12-03T21:41:35.194Z,7.88
2022-12-03T21:44:03.355Z,8.18
2022-12-03T21:47:11.088Z,10.65
2022-12-03T21:49:20.435Z,7.50
2022-12-03T21:51:48.626Z,7.75
2022-12-03T21:54:16.896Z,8.70
2022-12-03T21:56:44.663Z,10.93
2022-12-03T21:59:12.366Z,9.55
2022-12-03T22:01:44.123Z,10.02
2022-12-03T22:04:14.955Z,9.60
2022-12-03T22:06:42.560Z,13.88
2022-12-03T22:09:10.644Z,9.60
2022-12-03T22:11:38.891Z,9.52
2022-12-03T22:14:08.275Z,9.80
2022-12-03T22:16:36.271Z,8.82
2022-12-03T22:19:04.464Z,9.07
2022-12-03T22:21:32.216Z,10.23
2022-12-03T22:23:59.810Z,7.35
2022-12-03T22:26:27.535Z,10.82
2022-12-03T22:28:55.289Z,8.82
2022-12-03T22:31:22.880Z,9.25
2022-12-03T22:33:50.759Z,7.32
2022-12-03T22:36:21.634Z,18.52
2022-12-03T22:38:50.811Z,19.88
2022-12-03T22:41:19.468Z,11.60
2022-12-03T22:43:48.303Z,10.15
2022-12-03T22:46:17.109Z,8.40
2022-12-03T22:48:47.505Z,8.98
2022-12-03T22:51:23.824Z,7.57
2022-12-03T22:53:59.748Z,7.53
2022-12-03T22:56:29.599Z,10.43
2022-12-03T22:58:57.689Z,7.50
2022-12-03T23:01:34.329Z,9.70
2022-12-03T23:04:02.354Z,7.40
2022-12-03T23:06:31.521Z,11.75
2022-12-03T23:08:59.800Z,7.30
2022-12-03T23:11:27.540Z,7.35
2022-12-03T23:13:55.508Z,8.25
2022-12-03T23:16:26.338Z,6.43
2022-12-03T23:18:54.414Z,6.85
2022-12-03T23:21:29.470Z,7.05
2022-12-03T23:23:59.628Z,5.88
2022-12-03T23:26:27.927Z,7.60
2022-12-03T23:28:55.593Z,8.68
2022-12-03T23:31:26.298Z,11.98
2022-12-03T23:33:55.060Z,8.38
2022-12-03T23:36:23.840Z,7.00
2022-12-03T23:38:51.434Z,10.80
2022-12-03T23:41:21.276Z,8.50
2022-12-03T23:43:49.101Z,9.88
2022-12-03T23:46:22.598Z,10.45
2022-12-03T23:48:50.861Z,12.90
2022-12-03T23:51:21.292Z,11.32
2022-12-03T23:53:48.870Z,8.63
2022-12-03T23:56:19.175Z,9.18
2022-12-03T23:58:47.217Z,10.00
